MET'MAP v2.0
soon released !

Expected late october,
this new version will be
more efficient, smarter,
and hosted on a brand new
server x3 powerfull...
...and still free !


Not compatible ?
Try the mobile version !

LOG IN : | Subscribe | Disclaimer | Who is Orbifly ? |
ICAO code :

TAF - DAAD Bou Saada Airport - 17 Nov 2019 16:05 UTC - Data Source NOAA   


- Airport Elevation : 1506 ft
- IATA code : BUJ
- No reported NOTAMs.


DAAD - Bou Saada Airport

Latest METAR recorded : 2015/08/11 08:00 DAAD 110800Z 27010KT CAVOK 31/20 Q1017
TAF TAF DAAD
Valid from the 17 at 15:00 until the 18 at 00:00 UTC


171400Z 1715/1724 28012KT 9999 FEW026
PROB30
TEMPO 1715/1718 28015G25KT FEW026TCU

Source NOAA


MET'MAP, your aeronautical weather chart ! - Copyright ORBIFLY December 2007

Programming & Development : Alexandra Zaïnal
Co-Developer : Marc-Olivier Méhu
Technical & hardware support : Manuel Goepfert
Concept & Financing : Baudouin d'Aumeries